Dades meteomassalio
Diari Summary for Febrer 8, 2018 Units:  Both    English   Metric
« Previous Day
Next Day »
Diari Semanal Mensual Anual Personalitzat
  Maxima: Minima: Mijana:
Temperatura: TemperatureC °F /  -17.8 °C -2.2 °F /  -19 °C 2.2 °F /  -16.6 °C
Rosada: DewpointC °F /  -17.8 °C -3.9 °F /  -19.9 °C -1.4 °F /  -18.6 °C
Humitat: Humidity % 63 % 77 %
Velocitat del vent: WindSpeedKMH mph /  0 km/h - 18.7 mph /  30.1 km/h
Racha vent: WindSpeedGustKMH mph /  0 km/h - -
Vent:- - WNW
Pressio: PressurehPa in /  0 hPa 1019.9 in /  34533.8 hPa -
Pluja: 0.5 in /  12.7 mm    
Historical Graphs
 
 
Tabular Data for Febrer 8, 2018
Time Temperature Dew Point Pressure Wind Wind Speed Wind Gust Humidity Rainfall Rate (Hourly) solar Conditions
TemperatureC °F /  -17.8 °C DewpointC °F /  -17.8 °C PressurehPa in /  0 hPa Calm     Humidity % HourlyPrecipMM in /  0 mm SolarRadiationWatts/m^2 W/m2 Conditions
00:02 1.7 °F /  -16.8 °C -2.1 °F /  -18.9 °C 1021.6 in /  34591.4 hPa NW 16.7 mph /  26.9 km/h 16.7 mph /  26.9 km/h 76 % 0.0 in /  0 mm 0.0 W/m2 CLR
00:07 1.7 °F /  -16.8 °C -2.1 °F /  -18.9 °C 1021.6 in /  34591.4 hPa NW 11.1 mph /  17.9 km/h 11.1 mph /  17.9 km/h 76 % 0.0 in /  0 mm 0.0 W/m2 CLR
00:12 1.7 °F /  -16.8 °C -2.1 °F /  -18.9 °C 1021.6 in /  34591.4 hPa NW 18.5 mph /  29.8 km/h 18.5 mph /  29.8 km/h 76 % 0.0 in /  0 mm 0.0 W/m2 CLR
00:17 1.7 °F /  -16.8 °C -1.9 °F /  -18.8 °C 1021.6 in /  34591.4 hPa NW 18.5 mph /  29.8 km/h 18.5 mph /  29.8 km/h 77 % 0.0 in /  0 mm 0.0 W/m2 CLR
00:22 1.7 °F /  -16.8 °C -1.9 °F /  -18.8 °C 1021.6 in /  34591.4 hPa WNW 27.8 mph /  44.7 km/h 27.8 mph /  44.7 km/h 77 % 0.0 in /  0 mm 0.0 W/m2 CLR
00:27 1.7 °F /  -16.8 °C -1.9 °F /  -18.8 °C 1021.6 in /  34591.4 hPa WNW 14.8 mph /  23.8 km/h 14.8 mph /  23.8 km/h 77 % 0.0 in /  0 mm 0.0 W/m2 CLR
00:32 1.7 °F /  -16.8 °C -1.9 °F /  -18.8 °C 1021.6 in /  34591.4 hPa NW 27.8 mph /  44.7 km/h 27.8 mph /  44.7 km/h 77 % 0.0 in /  0 mm 0.0 W/m2 CLR
00:37 1.7 °F /  -16.8 °C -1.8 °F /  -18.8 °C 1021.6 in /  34591.4 hPa NW 20.4 mph /  32.8 km/h 20.4 mph /  32.8 km/h 78 % 0.0 in /  0 mm 0.0 W/m2 CLR
00:42 1.7 °F /  -16.8 °C -1.8 °F /  -18.8 °C 1021.6 in /  34591.4 hPa NNW 20.9 mph /  33.6 km/h 20.9 mph /  33.6 km/h 78 % 0.0 in /  0 mm 0.0 W/m2 CLR
00:47 1.7 °F /  -16.8 °C -1.8 °F /  -18.8 °C 1021.6 in /  34591.4 hPa NW 18.5 mph /  29.8 km/h 18.5 mph /  29.8 km/h 78 % 0.0 in /  0 mm 0.0 W/m2 CLR
00:52 1.7 °F /  -16.8 °C -1.8 °F /  -18.8 °C 1021.6 in /  34591.4 hPa NW 22.5 mph /  36.2 km/h 22.5 mph /  36.2 km/h 78 % 0.0 in /  0 mm 0.0 W/m2 CLR
00:57 1.1 °F /  -17.2 °C -2.3 °F /  -19.1 °C 1021.6 in /  34591.4 hPa NW 22.2 mph /  35.7 km/h 22.2 mph /  35.7 km/h 78 % 0.0 in /  0 mm 0.0 W/m2 CLR
01:02 1.1 °F /  -17.2 °C -2.5 °F /  -19.2 °C 1021.6 in /  34591.4 hPa NW 29.6 mph /  47.6 km/h 29.6 mph /  47.6 km/h 77 % 0.0 in /  0 mm 0.0 W/m2 CLR
01:07 1.1 °F /  -17.2 °C -2.5 °F /  -19.2 °C 1021.9 in /  34601.5 hPa WNW 20.4 mph /  32.8 km/h 20.4 mph /  32.8 km/h 77 % 0.0 in /  0 mm 0.0 W/m2 CLR
01:12 1.1 °F /  -17.2 °C -2.5 °F /  -19.2 °C 1021.9 in /  34601.5 hPa NW 20.9 mph /  33.6 km/h 20.9 mph /  33.6 km/h 77 % 0.0 in /  0 mm 0.0 W/m2 CLR
01:17 1.1 °F /  -17.2 °C -2.5 °F /  -19.2 °C 1021.6 in /  34591.4 hPa NW 24.1 mph /  38.8 km/h 24.1 mph /  38.8 km/h 77 % 0.0 in /  0 mm 0.0 W/m2 CLR
01:22 1.1 °F /  -17.2 °C -2.5 °F /  -19.2 °C 1021.6 in /  34591.4 hPa NW 22.2 mph /  35.7 km/h 22.2 mph /  35.7 km/h 77 % 0.0 in /  0 mm 0.0 W/m2 CLR
01:27 1.1 °F /  -17.2 °C -2.7 °F /  -19.3 °C 1021.6 in /  34591.4 hPa NW 18.5 mph /  29.8 km/h 18.5 mph /  29.8 km/h 76 % 0.0 in /  0 mm 0.0 W/m2 CLR
01:32 1.1 °F /  -17.2 °C -2.7 °F /  -19.3 °C 1021.6 in /  34591.4 hPa NW 20.9 mph /  33.6 km/h 20.9 mph /  33.6 km/h 76 % 0.0 in /  0 mm 0.0 W/m2 CLR
01:37 1.1 °F /  -17.2 °C -2.7 °F /  -19.3 °C 1021.6 in /  34591.4 hPa NW 24.1 mph /  38.8 km/h 24.1 mph /  38.8 km/h 76 % 0.0 in /  0 mm 0.0 W/m2 CLR
01:42 1.1 °F /  -17.2 °C -2.7 °F /  -19.3 °C 1021.6 in /  34591.4 hPa NW 20.4 mph /  32.8 km/h 20.4 mph /  32.8 km/h 76 % 0.0 in /  0 mm 0.0 W/m2 CLR
01:47 1.1 °F /  -17.2 °C -2.7 °F /  -19.3 °C 1021.6 in /  34591.4 hPa NW 24.1 mph /  38.8 km/h 24.1 mph /  38.8 km/h 76 % 0.0 in /  0 mm 0.0 W/m2 CLR
01:52 1.1 °F /  -17.2 °C -2.8 °F /  -19.3 °C 1021.6 in /  34591.4 hPa NW 22.5 mph /  36.2 km/h 22.5 mph /  36.2 km/h 75 % 0.0 in /  0 mm 0.0 W/m2 CLR
01:54 1.1 °F /  -17.2 °C -2.8 °F /  -19.3 °C 1021.6 in /  34591.4 hPa WNW 22.2 mph /  35.7 km/h 22.2 mph /  35.7 km/h 75 % 0.0 in /  0 mm 0.0 W/m2 CLR
01:59 1.1 °F /  -17.2 °C -2.8 °F /  -19.3 °C 1021.6 in /  34591.4 hPa WNW 29.6 mph /  47.6 km/h 29.6 mph /  47.6 km/h 75 % 0.0 in /  0 mm 0.0 W/m2 CLR
02:04 1.1 °F /  -17.2 °C -2.8 °F /  -19.3 °C 1021.6 in /  34591.4 hPa WNW 31.5 mph /  50.7 km/h 31.5 mph /  50.7 km/h 75 % 0.0 in /  0 mm 0.0 W/m2 CLR
02:09 1.1 °F /  -17.2 °C -3.0 °F /  -19.4 °C 1021.6 in /  34591.4 hPa WNW 27.8 mph /  44.7 km/h 27.8 mph /  44.7 km/h 74 % 0.0 in /  0 mm 0.0 W/m2 CLR
02:14 1.1 °F /  -17.2 °C -2.8 °F /  -19.3 °C 1021.6 in /  34591.4 hPa WNW 22.2 mph /  35.7 km/h 22.2 mph /  35.7 km/h 75 % 0.0 in /  0 mm 0.0 W/m2 CLR
02:19 1.1 °F /  -17.2 °C -3.0 °F /  -19.4 °C 1021.6 in /  34591.4 hPa NW 20.4 mph /  32.8 km/h 20.4 mph /  32.8 km/h 74 % 0.0 in /  0 mm 0.0 W/m2 CLR
02:24 0.6 °F /  -17.4 °C -3.4 °F /  -19.7 °C 1021.6 in /  34591.4 hPa NW 20.4 mph /  32.8 km/h 20.4 mph /  32.8 km/h 75 % 0.0 in /  0 mm 0.0 W/m2 CLR
02:29 0.6 °F /  -17.4 °C -3.4 °F /  -19.7 °C 1021.6 in /  34591.4 hPa NW 20.4 mph /  32.8 km/h 20.4 mph /  32.8 km/h 75 % 0.0 in /  0 mm 0.0 W/m2 CLR
02:34 0.6 °F /  -17.4 °C -3.4 °F /  -19.7 °C 1021.6 in /  34591.4 hPa NW 32.2 mph /  51.8 km/h 32.2 mph /  51.8 km/h 75 % 0.0 in /  0 mm 0.0 W/m2 CLR
02:39 0.6 °F /  -17.4 °C -3.4 °F /  -19.7 °C 1021.6 in /  34591.4 hPa NW 24.1 mph /  38.8 km/h 24.1 mph /  38.8 km/h 75 % 0.0 in /  0 mm 0.0 W/m2 CLR
02:44 0.6 °F /  -17.4 °C -3.4 °F /  -19.7 °C 1021.6 in /  34591.4 hPa NW 22.2 mph /  35.7 km/h 22.2 mph /  35.7 km/h 75 % 0.0 in /  0 mm 0.0 W/m2 CLR
02:49 0.6 °F /  -17.4 °C -3.4 °F /  -19.7 °C 1021.6 in /  34591.4 hPa NW 18.5 mph /  29.8 km/h 18.5 mph /  29.8 km/h 75 % 0.0 in /  0 mm 0.0 W/m2 CLR
02:54 0.6 °F /  -17.4 °C -3.4 °F /  -19.7 °C 1021.6 in /  34591.4 hPa WNW 20.4 mph /  32.8 km/h 20.4 mph /  32.8 km/h 75 % 0.0 in /  0 mm 0.0 W/m2 CLR
02:59 0.6 °F /  -17.4 °C -3.4 °F /  -19.7 °C 1021.6 in /  34591.4 hPa WNW 16.7 mph /  26.9 km/h 16.7 mph /  26.9 km/h 75 % 0.0 in /  0 mm 0.0 W/m2 CLR
03:04 0.6 °F /  -17.4 °C -3.4 °F /  -19.7 °C 1021.6 in /  34591.4 hPa NW 18.5 mph /  29.8 km/h 18.5 mph /  29.8 km/h 75 % 0.0 in /  0 mm 0.0 W/m2 CLR
03:09 0.6 °F /  -17.4 °C -3.4 °F /  -19.7 °C 1021.6 in /  34591.4 hPa NW 20.4 mph /  32.8 km/h 20.4 mph /  32.8 km/h 75 % 0.0 in /  0 mm 0.0 W/m2 CLR
03:14 0.6 °F /  -17.4 °C -3.2 °F /  -19.6 °C 1021.6 in /  34591.4 hPa NW 18.5 mph /  29.8 km/h 18.5 mph /  29.8 km/h 76 % 0.0 in /  0 mm 0.0 W/m2 CLR
03:19 0.0 °F /  -17.8 °C -3.7 °F /  -19.8 °C 1021.6 in /  34591.4 hPa NW 16.7 mph /  26.9 km/h 16.7 mph /  26.9 km/h 76 % 0.0 in /  0 mm 0.0 W/m2 CLR
03:36 0.0 °F /  -17.8 °C -3.7 °F /  -19.8 °C 1021.6 in /  34591.4 hPa NW 25.9 mph /  41.7 km/h 25.9 mph /  41.7 km/h 76 % 0.0 in /  0 mm 0.0 W/m2 CLR
03:41 0.0 °F /  -17.8 °C -3.7 °F /  -19.8 °C 1021.6 in /  34591.4 hPa NW 14.8 mph /  23.8 km/h 14.8 mph /  23.8 km/h 76 % 0.0 in /  0 mm 0.0 W/m2 CLR
03:46 0.0 °F /  -17.8 °C -3.7 °F /  -19.8 °C 1021.6 in /  34591.4 hPa NW 19.3 mph /  31.1 km/h 19.3 mph /  31.1 km/h 76 % 0.0 in /  0 mm 0.0 W/m2 CLR
03:51 0.0 °F /  -17.8 °C -3.7 °F /  -19.8 °C 1021.6 in /  34591.4 hPa NNW 16.7 mph /  26.9 km/h 16.7 mph /  26.9 km/h 76 % 0.0 in /  0 mm 0.0 W/m2 CLR
03:56 0.0 °F /  -17.8 °C -3.6 °F /  -19.8 °C 1021.6 in /  34591.4 hPa NW 20.4 mph /  32.8 km/h 20.4 mph /  32.8 km/h 77 % 0.0 in /  0 mm 0.0 W/m2 CLR
04:01 0.0 °F /  -17.8 °C -3.6 °F /  -19.8 °C 1021.6 in /  34591.4 hPa NW 14.8 mph /  23.8 km/h 14.8 mph /  23.8 km/h 77 % 0.0 in /  0 mm 0.0 W/m2 CLR
04:06 0.0 °F /  -17.8 °C -3.6 °F /  -19.8 °C 1021.6 in /  34591.4 hPa WNW 14.5 mph /  23.3 km/h 14.5 mph /  23.3 km/h 77 % 0.0 in /  0 mm 0.0 W/m2 CLR
04:11 0.0 °F /  -17.8 °C -3.6 °F /  -19.8 °C 1021.6 in /  34591.4 hPa WNW 16.7 mph /  26.9 km/h 16.7 mph /  26.9 km/h 77 % 0.0 in /  0 mm 0.0 W/m2 CLR
04:16 0.0 °F /  -17.8 °C -3.6 °F /  -19.8 °C 1021.6 in /  34591.4 hPa NW 18.5 mph /  29.8 km/h 18.5 mph /  29.8 km/h 77 % 0.0 in /  0 mm 0.0 W/m2 CLR
04:21 0.0 °F /  -17.8 °C -3.4 °F /  -19.7 °C 1021.6 in /  34591.4 hPa NW 20.4 mph /  32.8 km/h 20.4 mph /  32.8 km/h 78 % 0.0 in /  0 mm 0.0 W/m2 CLR
04:26 0.0 °F /  -17.8 °C -3.4 °F /  -19.7 °C 1021.6 in /  34591.4 hPa NW 18.5 mph /  29.8 km/h 18.5 mph /  29.8 km/h 78 % 0.0 in /  0 mm 0.0 W/m2 CLR
04:31 0.0 °F /  -17.8 °C -3.4 °F /  -19.7 °C 1021.6 in /  34591.4 hPa NW 18.5 mph /  29.8 km/h 18.5 mph /  29.8 km/h 78 % 0.0 in /  0 mm 0.0 W/m2 CLR
04:36 0.0 °F /  -17.8 °C -3.4 °F /  -19.7 °C 1021.6 in /  34591.4 hPa WNW 20.4 mph /  32.8 km/h 20.4 mph /  32.8 km/h 78 % 0.0 in /  0 mm 0.0 W/m2 CLR
04:41 0.0 °F /  -17.8 °C -3.4 °F /  -19.7 °C 1021.2 in /  34577.8 hPa NW 18.5 mph /  29.8 km/h 18.5 mph /  29.8 km/h 78 % 0.0 in /  0 mm 0.0 W/m2 CLR
04:46 0.0 °F /  -17.8 °C -3.4 °F /  -19.7 °C 1021.2 in /  34577.8 hPa WNW 24.1 mph /  38.8 km/h 24.1 mph /  38.8 km/h 78 % 0.0 in /  0 mm 0.0 W/m2 CLR
04:51 0.0 °F /  -17.8 °C -3.6 °F /  -19.8 °C 1021.2 in /  34577.8 hPa NW 18.5 mph /  29.8 km/h 18.5 mph /  29.8 km/h 77 % 0.0 in /  0 mm 0.0 W/m2 CLR
04:56 0.0 °F /  -17.8 °C -3.6 °F /  -19.8 °C 1021.2 in /  34577.8 hPa WNW 16.7 mph /  26.9 km/h 16.7 mph /  26.9 km/h 77 % 0.0 in /  0 mm 0.0 W/m2 CLR
05:01 0.0 °F /  -17.8 °C -3.6 °F /  -19.8 °C 1021.2 in /  34577.8 hPa West 7.4 mph /  11.9 km/h 7.4 mph /  11.9 km/h 77 % 0.0 in /  0 mm 0.0 W/m2 CLR
05:06 0.0 °F /  -17.8 °C -3.6 °F /  -19.8 °C 1021.2 in /  34577.8 hPa West 6.4 mph /  10.3 km/h 6.4 mph /  10.3 km/h 77 % 0.0 in /  0 mm 0.0 W/m2 CLR
05:11 -0.6 °F /  -18.1 °C -3.9 °F /  -19.9 °C 1021.6 in /  34591.4 hPa NNW 13.0 mph /  20.9 km/h 13.0 mph /  20.9 km/h 78 % 0.0 in /  0 mm 0.0 W/m2 CLR
05:16 -0.6 °F /  -18.1 °C -3.9 °F /  -19.9 °C 1021.6 in /  34591.4 hPa NW 16.1 mph /  25.9 km/h 16.1 mph /  25.9 km/h 78 % 0.0 in /  0 mm 0.0 W/m2 CLR
05:21 -0.6 °F /  -18.1 °C -3.8 °F /  -19.9 °C 1021.6 in /  34591.4 hPa NW 20.9 mph /  33.6 km/h 20.9 mph /  33.6 km/h 79 % 0.0 in /  0 mm 0.0 W/m2 CLR
05:26 0.0 °F /  -17.8 °C -3.2 °F /  -19.6 °C 1021.6 in /  34591.4 hPa NW 24.1 mph /  38.8 km/h 24.1 mph /  38.8 km/h 79 % 0.0 in /  0 mm 0.0 W/m2 CLR
05:31 0.0 °F /  -17.8 °C -3.4 °F /  -19.7 °C 1021.6 in /  34591.4 hPa NW 19.3 mph /  31.1 km/h 19.3 mph /  31.1 km/h 78 % 0.0 in /  0 mm 0.0 W/m2 CLR
05:36 0.0 °F /  -17.8 °C -3.4 °F /  -19.7 °C 1021.6 in /  34591.4 hPa NW 22.2 mph /  35.7 km/h 22.2 mph /  35.7 km/h 78 % 0.0 in /  0 mm 0.0 W/m2 CLR
05:41 0.6 °F /  -17.4 °C -2.8 °F /  -19.3 °C 1021.6 in /  34591.4 hPa NW 22.2 mph /  35.7 km/h 22.2 mph /  35.7 km/h 78 % 0.0 in /  0 mm 0.0 W/m2 CLR
05:46 0.6 °F /  -17.4 °C -2.8 °F /  -19.3 °C 1021.6 in /  34591.4 hPa NW 24.1 mph /  38.8 km/h 24.1 mph /  38.8 km/h 78 % 0.0 in /  0 mm 0.0 W/m2 CLR
05:51 0.6 °F /  -17.4 °C -2.8 °F /  -19.3 °C 1021.6 in /  34591.4 hPa WNW 22.2 mph /  35.7 km/h 22.2 mph /  35.7 km/h 78 % 0.0 in /  0 mm 0.0 W/m2 CLR
05:56 0.6 °F /  -17.4 °C -2.8 °F /  -19.3 °C 1021.6 in /  34591.4 hPa NNW 18.5 mph /  29.8 km/h 18.5 mph /  29.8 km/h 78 % 0.0 in /  0 mm 0.0 W/m2 CLR
06:01 0.0 °F /  -17.8 °C -3.4 °F /  -19.7 °C 1021.6 in /  34591.4 hPa NW 16.7 mph /  26.9 km/h 16.7 mph /  26.9 km/h 78 % 0.0 in /  0 mm 0.0 W/m2 CLR
06:06 0.0 °F /  -17.8 °C -3.2 °F /  -19.6 °C 1021.6 in /  34591.4 hPa NW 16.7 mph /  26.9 km/h 16.7 mph /  26.9 km/h 79 % 0.0 in /  0 mm 0.0 W/m2 CLR
06:11 0.0 °F /  -17.8 °C -3.2 °F /  -19.6 °C 1021.6 in /  34591.4 hPa NW 16.7 mph /  26.9 km/h 16.7 mph /  26.9 km/h 79 % 0.0 in /  0 mm 0.0 W/m2 CLR
06:16 0.0 °F /  -17.8 °C -3.2 °F /  -19.6 °C 1021.6 in /  34591.4 hPa WNW 14.8 mph /  23.8 km/h 14.8 mph /  23.8 km/h 79 % 0.0 in /  0 mm 0.0 W/m2 CLR
06:21 0.0 °F /  -17.8 °C -3.2 °F /  -19.6 °C 1021.2 in /  34577.8 hPa WNW 22.2 mph /  35.7 km/h 22.2 mph /  35.7 km/h 79 % 0.0 in /  0 mm 0.0 W/m2 CLR
06:26 0.0 °F /  -17.8 °C -3.4 °F /  -19.7 °C 1021.2 in /  34577.8 hPa NW 18.5 mph /  29.8 km/h 18.5 mph /  29.8 km/h 78 % 0.0 in /  0 mm 0.0 W/m2 CLR
06:31 0.0 °F /  -17.8 °C -3.4 °F /  -19.7 °C 1021.2 in /  34577.8 hPa NW 18.5 mph /  29.8 km/h 18.5 mph /  29.8 km/h 78 % 0.0 in /  0 mm 0.0 W/m2 CLR
06:36 0.0 °F /  -17.8 °C -3.4 °F /  -19.7 °C 1021.2 in /  34577.8 hPa NW 18.5 mph /  29.8 km/h 18.5 mph /  29.8 km/h 78 % 0.0 in /  0 mm 0.0 W/m2 CLR
06:41 0.0 °F /  -17.8 °C -3.4 °F /  -19.7 °C 1021.2 in /  34577.8 hPa NW 18.5 mph /  29.8 km/h 18.5 mph /  29.8 km/h 78 % 0.0 in /  0 mm 0.0 W/m2 CLR
06:46 0.0 °F /  -17.8 °C -3.2 °F /  -19.6 °C 1021.2 in /  34577.8 hPa NW 22.2 mph /  35.7 km/h 22.2 mph /  35.7 km/h 79 % 0.0 in /  0 mm 0.0 W/m2 CLR
06:51 0.0 °F /  -17.8 °C -3.2 °F /  -19.6 °C 1021.2 in /  34577.8 hPa NW 27.8 mph /  44.7 km/h 27.8 mph /  44.7 km/h 79 % 0.0 in /  0 mm 0.0 W/m2 CLR
06:56 0.6 °F /  -17.4 °C -2.8 °F /  -19.3 °C 1021.2 in /  34577.8 hPa WNW 22.5 mph /  36.2 km/h 22.5 mph /  36.2 km/h 78 % 0.0 in /  0 mm 0.0 W/m2 CLR
07:01 0.6 °F /  -17.4 °C -2.8 °F /  -19.3 °C 1021.2 in /  34577.8 hPa WNW 20.4 mph /  32.8 km/h 20.4 mph /  32.8 km/h 78 % 0.0 in /  0 mm 0.0 W/m2 CLR
07:06 0.6 °F /  -17.4 °C -2.7 °F /  -19.3 °C 1021.2 in /  34577.8 hPa WNW 25.9 mph /  41.7 km/h 25.9 mph /  41.7 km/h 79 % 0.0 in /  0 mm 0.0 W/m2 CLR
07:11 0.6 °F /  -17.4 °C -2.7 °F /  -19.3 °C 1021.6 in /  34591.4 hPa WNW 18.5 mph /  29.8 km/h 18.5 mph /  29.8 km/h 79 % 0.0 in /  0 mm 0.0 W/m2 CLR
07:16 0.6 °F /  -17.4 °C -2.7 °F /  -19.3 °C 1021.6 in /  34591.4 hPa West 22.5 mph /  36.2 km/h 22.5 mph /  36.2 km/h 79 % 0.0 in /  0 mm 0.0 W/m2 CLR
07:21 0.0 °F /  -17.8 °C -3.2 °F /  -19.6 °C 1021.6 in /  34591.4 hPa WNW 16.7 mph /  26.9 km/h 16.7 mph /  26.9 km/h 79 % 0.0 in /  0 mm 0.0 W/m2 CLR
07:26 0.0 °F /  -17.8 °C -3.2 °F /  -19.6 °C 1021.6 in /  34591.4 hPa WNW 14.8 mph /  23.8 km/h 14.8 mph /  23.8 km/h 79 % 0.0 in /  0 mm 0.0 W/m2 CLR
07:31 0.0 °F /  -17.8 °C -3.2 °F /  -19.6 °C 1021.6 in /  34591.4 hPa WNW 12.9 mph /  20.8 km/h 12.9 mph /  20.8 km/h 79 % 0.0 in /  0 mm 0.0 W/m2 CLR
07:36 -0.6 °F /  -18.1 °C -3.8 °F /  -19.9 °C 1021.6 in /  34591.4 hPa NW 5.6 mph /  9 km/h 5.6 mph /  9 km/h 79 % 0.0 in /  0 mm 0.0 W/m2 CLR
07:41 -0.6 °F /  -18.1 °C -3.6 °F /  -19.8 °C 1021.6 in /  34591.4 hPa WNW 14.8 mph /  23.8 km/h 14.8 mph /  23.8 km/h 80 % 0.0 in /  0 mm 0.0 W/m2 CLR
07:46 -0.6 °F /  -18.1 °C -3.6 °F /  -19.8 °C 1021.6 in /  34591.4 hPa NW 13.0 mph /  20.9 km/h 13.0 mph /  20.9 km/h 80 % 0.0 in /  0 mm 0.0 W/m2 CLR
07:51 -0.6 °F /  -18.1 °C -3.6 °F /  -19.8 °C 1021.6 in /  34591.4 hPa NW 9.3 mph /  15 km/h 9.3 mph /  15 km/h 80 % 0.0 in /  0 mm 0.0 W/m2 CLR
07:56 -0.6 °F /  -18.1 °C -3.6 °F /  -19.8 °C 1021.6 in /  34591.4 hPa NW 7.4 mph /  11.9 km/h 7.4 mph /  11.9 km/h 80 % 0.0 in /  0 mm 0.0 W/m2 CLR
08:01 -0.6 °F /  -18.1 °C -3.6 °F /  -19.8 °C 1021.6 in /  34591.4 hPa NNW 9.3 mph /  15 km/h 9.3 mph /  15 km/h 80 % 0.0 in /  0 mm 5.0 W/m2 OVC
08:07 -0.6 °F /  -18.1 °C -3.6 °F /  -19.8 °C 1021.6 in /  34591.4 hPa WNW 11.1 mph /  17.9 km/h 11.1 mph /  17.9 km/h 80 % 0.0 in /  0 mm 7.0 W/m2 OVC
08:12 -0.6 °F /  -18.1 °C -3.6 °F /  -19.8 °C 1021.6 in /  34591.4 hPa NW 13.0 mph /  20.9 km/h 13.0 mph /  20.9 km/h 80 % 0.0 in /  0 mm 9.0 W/m2 BKN
08:17 -0.6 °F /  -18.1 °C -3.4 °F /  -19.7 °C 1021.6 in /  34591.4 hPa NNW 16.7 mph /  26.9 km/h 16.7 mph /  26.9 km/h 81 % 0.0 in /  0 mm 11.0 W/m2 BKN
08:22 -0.6 °F /  -18.1 °C -3.4 °F /  -19.7 °C 1021.6 in /  34591.4 hPa NW 6.4 mph /  10.3 km/h 6.4 mph /  10.3 km/h 81 % 0.0 in /  0 mm 14.0 W/m2 BKN
08:27 -0.6 °F /  -18.1 °C -3.4 °F /  -19.7 °C 1021.6 in /  34591.4 hPa NW 22.2 mph /  35.7 km/h 22.2 mph /  35.7 km/h 81 % 0.0 in /  0 mm 16.0 W/m2 BKN
08:32 0.0 °F /  -17.8 °C -3.1 °F /  -19.5 °C 1021.6 in /  34591.4 hPa NW 14.8 mph /  23.8 km/h 14.8 mph /  23.8 km/h 80 % 0.0 in /  0 mm 19.0 W/m2 BKN
08:37 0.0 °F /  -17.8 °C -3.1 °F /  -19.5 °C 1021.6 in /  34591.4 hPa NW 14.8 mph /  23.8 km/h 14.8 mph /  23.8 km/h 80 % 0.0 in /  0 mm 26.0 W/m2 BKN
08:42 0.6 °F /  -17.4 °C -2.7 °F /  -19.3 °C 1021.6 in /  34591.4 hPa NW 14.8 mph /  23.8 km/h 14.8 mph /  23.8 km/h 79 % 0.0 in /  0 mm 37.0 W/m2 BKN
08:47 1.1 °F /  -17.2 °C -2.1 °F /  -18.9 °C 1021.6 in /  34591.4 hPa NNW 14.5 mph /  23.3 km/h 14.5 mph /  23.3 km/h 79 % 0.0 in /  0 mm 51.0 W/m2 SCT
08:52 1.1 °F /  -17.2 °C -2.1 °F /  -18.9 °C 1021.6 in /  34591.4 hPa NW 22.2 mph /  35.7 km/h 22.2 mph /  35.7 km/h 79 % 0.0 in /  0 mm 62.0 W/m2 SCT
08:57 1.1 °F /  -17.2 °C -2.1 °F /  -18.9 °C 1021.6 in /  34591.4 hPa NW 22.2 mph /  35.7 km/h 22.2 mph /  35.7 km/h 79 % 0.0 in /  0 mm 76.0 W/m2 FEW
09:02 1.1 °F /  -17.2 °C -2.3 °F /  -19.1 °C 1021.9 in /  34601.5 hPa NNW 16.7 mph /  26.9 km/h 16.7 mph /  26.9 km/h 78 % 0.0 in /  0 mm 86.0 W/m2 CLR
09:07 1.1 °F /  -17.2 °C -2.3 °F /  -19.1 °C 1021.9 in /  34601.5 hPa NW 16.7 mph /  26.9 km/h 16.7 mph /  26.9 km/h 78 % 0.0 in /  0 mm 105.0 W/m2 FEW
09:12 1.7 °F /  -16.8 °C -1.9 °F /  -18.8 °C 1021.9 in /  34601.5 hPa NW 13.0 mph /  20.9 km/h 13.0 mph /  20.9 km/h 77 % 0.0 in /  0 mm 123.0 W/m2 CLR
09:17 1.7 °F /  -16.8 °C -1.9 °F /  -18.8 °C 1021.9 in /  34601.5 hPa NNW 16.7 mph /  26.9 km/h 16.7 mph /  26.9 km/h 77 % 0.0 in /  0 mm 109.0 W/m2 CLR
09:22 1.7 °F /  -16.8 °C -2.1 °F /  -18.9 °C 1021.9 in /  34601.5 hPa NNW 16.7 mph /  26.9 km/h 16.7 mph /  26.9 km/h 76 % 0.0 in /  0 mm 153.0 W/m2 CLR
09:27 2.2 °F /  -16.6 °C -1.6 °F /  -18.7 °C 1021.9 in /  34601.5 hPa NW 24.1 mph /  38.8 km/h 24.1 mph /  38.8 km/h 76 % 0.0 in /  0 mm 169.0 W/m2 CLR
09:32 2.2 °F /  -16.6 °C -1.8 °F /  -18.8 °C 1021.9 in /  34601.5 hPa NNW 27.8 mph /  44.7 km/h 27.8 mph /  44.7 km/h 75 % 0.0 in /  0 mm 137.0 W/m2 CLR
09:37 2.2 °F /  -16.6 °C -1.8 °F /  -18.8 °C 1022.2 in /  34611.7 hPa NNW 29.6 mph /  47.6 km/h 29.6 mph /  47.6 km/h 75 % 0.0 in /  0 mm 158.0 W/m2 CLR
09:42 2.8 °F /  -16.2 °C -1.2 °F /  -18.4 °C 1021.9 in /  34601.5 hPa WNW 25.9 mph /  41.7 km/h 25.9 mph /  41.7 km/h 75 % 0.0 in /  0 mm 216.0 W/m2 CLR
09:47 2.8 °F /  -16.2 °C -1.2 °F /  -18.4 °C 1022.2 in /  34611.7 hPa NNW 27.8 mph /  44.7 km/h 27.8 mph /  44.7 km/h 75 % 0.0 in /  0 mm 246.0 W/m2 CLR
09:52 2.8 °F /  -16.2 °C -1.2 °F /  -18.4 °C 1022.2 in /  34611.7 hPa NNW 32.2 mph /  51.8 km/h 32.2 mph /  51.8 km/h 75 % 0.0 in /  0 mm 267.0 W/m2 CLR
09:57 2.8 °F /  -16.2 °C -1.2 °F /  -18.4 °C 1021.9 in /  34601.5 hPa NNW 29.6 mph /  47.6 km/h 29.6 mph /  47.6 km/h 75 % 0.0 in /  0 mm 267.0 W/m2 CLR
10:02 2.8 °F /  -16.2 °C -1.2 °F /  -18.4 °C 1022.2 in /  34611.7 hPa NNW 25.9 mph /  41.7 km/h 25.9 mph /  41.7 km/h 75 % 0.0 in /  0 mm 294.0 W/m2 CLR
10:07 3.3 °F /  -15.9 °C -0.7 °F /  -18.2 °C 1022.2 in /  34611.7 hPa NNW 31.5 mph /  50.7 km/h 31.5 mph /  50.7 km/h 75 % 0.0 in /  0 mm 306.0 W/m2 CLR
10:12 3.3 °F /  -15.9 °C -0.7 °F /  -18.2 °C 1021.9 in /  34601.5 hPa NNW 31.5 mph /  50.7 km/h 31.5 mph /  50.7 km/h 75 % 0.0 in /  0 mm 320.0 W/m2 CLR
10:17 3.3 °F /  -15.9 °C -0.7 °F /  -18.2 °C 1021.9 in /  34601.5 hPa WNW 31.5 mph /  50.7 km/h 31.5 mph /  50.7 km/h 75 % 0.0 in /  0 mm 332.0 W/m2 CLR
10:22 3.3 °F /  -15.9 °C -0.7 °F /  -18.2 °C 1021.9 in /  34601.5 hPa NW 27.8 mph /  44.7 km/h 27.8 mph /  44.7 km/h 75 % 0.0 in /  0 mm 343.0 W/m2 CLR
10:27 3.3 °F /  -15.9 °C -0.9 °F /  -18.3 °C 1021.9 in /  34601.5 hPa NNW 38.9 mph /  62.6 km/h 38.9 mph /  62.6 km/h 74 % 0.0 in /  0 mm 355.0 W/m2 CLR
10:32 3.9 °F /  -15.6 °C -0.2 °F /  -17.9 °C 1021.9 in /  34601.5 hPa NNW 25.9 mph /  41.7 km/h 25.9 mph /  41.7 km/h 75 % 0.0 in /  0 mm 390.0 W/m2 CLR
10:37 3.9 °F /  -15.6 °C -0.3 °F /  -17.9 °C 1021.9 in /  34601.5 hPa North 33.3 mph /  53.6 km/h 33.3 mph /  53.6 km/h 74 % 0.0 in /  0 mm 388.0 W/m2 CLR
10:42 3.9 °F /  -15.6 °C -0.3 °F /  -17.9 °C 1021.9 in /  34601.5 hPa NNW 35.2 mph /  56.6 km/h 35.2 mph /  56.6 km/h 74 % 0.0 in /  0 mm 397.0 W/m2 CLR
10:47 4.4 °F /  -15.3 °C 0.2 °F /  -17.7 °C 1021.9 in /  34601.5 hPa NNW 25.9 mph /  41.7 km/h 25.9 mph /  41.7 km/h 74 % 0.0 in /  0 mm 403.0 W/m2 CLR
10:52 4.4 °F /  -15.3 °C -0.2 °F /  -17.9 °C 1022.2 in /  34611.7 hPa NW 42.6 mph /  68.6 km/h 42.6 mph /  68.6 km/h 72 % 0.0 in /  0 mm 464.0 W/m2 CLR
10:57 5.0 °F /  -15 °C 0.6 °F /  -17.4 °C 1022.2 in /  34611.7 hPa NNW 25.9 mph /  41.7 km/h 25.9 mph /  41.7 km/h 73 % 0.0 in /  0 mm 480.0 W/m2 CLR
11:02 4.4 °F /  -15.3 °C -0.2 °F /  -17.9 °C 1022.2 in /  34611.7 hPa NW 29.6 mph /  47.6 km/h 29.6 mph /  47.6 km/h 72 % 0.0 in /  0 mm 230.0 W/m2 CLR
11:07 4.4 °F /  -15.3 °C 0.2 °F /  -17.7 °C 1022.2 in /  34611.7 hPa North 25.9 mph /  41.7 km/h 25.9 mph /  41.7 km/h 74 % 0.0 in /  0 mm 461.0 W/m2 CLR
11:12 4.4 °F /  -15.3 °C 0.0 °F /  -17.8 °C 1022.2 in /  34611.7 hPa North 40.7 mph /  65.5 km/h 40.7 mph /  65.5 km/h 73 % 0.0 in /  0 mm 214.0 W/m2 CLR
11:17 4.4 °F /  -15.3 °C -0.2 °F /  -17.9 °C 1022.2 in /  34611.7 hPa NNW 33.8 mph /  54.4 km/h 33.8 mph /  54.4 km/h 72 % 0.0 in /  0 mm 151.0 W/m2 CLR
11:22 4.4 °F /  -15.3 °C 0.0 °F /  -17.8 °C 1022.2 in /  34611.7 hPa NW 20.4 mph /  32.8 km/h 20.4 mph /  32.8 km/h 73 % 0.0 in /  0 mm 123.0 W/m2 CLR
11:27 4.4 °F /  -15.3 °C 0.0 °F /  -17.8 °C 1022.2 in /  34611.7 hPa NNW 35.2 mph /  56.6 km/h 35.2 mph /  56.6 km/h 73 % 0.0 in /  0 mm 95.0 W/m2 CLR
11:32 3.9 °F /  -15.6 °C -0.5 °F /  -18.1 °C 1022.2 in /  34611.7 hPa North 27.8 mph /  44.7 km/h 27.8 mph /  44.7 km/h 73 % 0.0 in /  0 mm 111.0 W/m2 CLR
11:37 3.9 °F /  -15.6 °C -0.5 °F /  -18.1 °C 1022.2 in /  34611.7 hPa NNW 25.9 mph /  41.7 km/h 25.9 mph /  41.7 km/h 73 % 0.0 in /  0 mm 95.0 W/m2 CLR
11:42 3.9 °F /  -15.6 °C -0.7 °F /  -18.2 °C 1022.2 in /  34611.7 hPa NNW 30.6 mph /  49.2 km/h 30.6 mph /  49.2 km/h 72 % 0.0 in /  0 mm 121.0 W/m2 CLR
11:47 3.9 °F /  -15.6 °C -0.7 °F /  -18.2 °C 1021.9 in /  34601.5 hPa North 31.5 mph /  50.7 km/h 31.5 mph /  50.7 km/h 72 % 0.0 in /  0 mm 113.0 W/m2 CLR
11:52 3.9 °F /  -15.6 °C -0.7 °F /  -18.2 °C 1021.9 in /  34601.5 hPa NNW 29.6 mph /  47.6 km/h 29.6 mph /  47.6 km/h 72 % 0.0 in /  0 mm 113.0 W/m2 CLR
11:57 4.4 °F /  -15.3 °C -0.2 °F /  -17.9 °C 1022.2 in /  34611.7 hPa North 31.5 mph /  50.7 km/h 31.5 mph /  50.7 km/h 72 % 0.0 in /  0 mm 128.0 W/m2 CLR
12:02 4.4 °F /  -15.3 °C -0.2 °F /  -17.9 °C 1021.9 in /  34601.5 hPa North 31.5 mph /  50.7 km/h 31.5 mph /  50.7 km/h 72 % 0.0 in /  0 mm 100.0 W/m2 CLR
12:07 4.4 °F /  -15.3 °C -0.2 °F /  -17.9 °C 1021.9 in /  34601.5 hPa North 27.8 mph /  44.7 km/h 27.8 mph /  44.7 km/h 72 % 0.0 in /  0 mm 83.0 W/m2 CLR
12:12 3.9 °F /  -15.6 °C -0.5 °F /  -18.1 °C 1021.9 in /  34601.5 hPa North 25.9 mph /  41.7 km/h 25.9 mph /  41.7 km/h 73 % 0.0 in /  0 mm 109.0 W/m2 CLR
12:17 4.4 °F /  -15.3 °C 0.0 °F /  -17.8 °C 1021.9 in /  34601.5 hPa North 27.8 mph /  44.7 km/h 27.8 mph /  44.7 km/h 73 % 0.0 in /  0 mm 121.0 W/m2 CLR
12:22 4.4 °F /  -15.3 °C 0.2 °F /  -17.7 °C 1021.9 in /  34601.5 hPa NNW 24.1 mph /  38.8 km/h 24.1 mph /  38.8 km/h 74 % 0.0 in /  0 mm 109.0 W/m2 CLR
12:27 4.4 °F /  -15.3 °C 0.0 °F /  -17.8 °C 1021.6 in /  34591.4 hPa NNE 35.2 mph /  56.6 km/h 35.2 mph /  56.6 km/h 73 % 0.0 in /  0 mm 123.0 W/m2 CLR
12:32 4.4 °F /  -15.3 °C 0.0 °F /  -17.8 °C 1021.9 in /  34601.5 hPa NNW 27.8 mph /  44.7 km/h 27.8 mph /  44.7 km/h 73 % 0.0 in /  0 mm 120.0 W/m2 CLR
12:37 4.4 °F /  -15.3 °C -0.2 °F /  -17.9 °C 1021.6 in /  34591.4 hPa NNW 31.5 mph /  50.7 km/h 31.5 mph /  50.7 km/h 72 % 0.0 in /  0 mm 91.0 W/m2 CLR
12:42 4.4 °F /  -15.3 °C 0.0 °F /  -17.8 °C 1021.6 in /  34591.4 hPa North 31.5 mph /  50.7 km/h 31.5 mph /  50.7 km/h 73 % 0.0 in /  0 mm 105.0 W/m2 CLR
12:47 4.4 °F /  -15.3 °C 0.2 °F /  -17.7 °C 1021.6 in /  34591.4 hPa North 25.9 mph /  41.7 km/h 25.9 mph /  41.7 km/h 74 % 0.0 in /  0 mm 109.0 W/m2 CLR
12:52 4.4 °F /  -15.3 °C 0.2 °F /  -17.7 °C 1021.6 in /  34591.4 hPa North 25.9 mph /  41.7 km/h 25.9 mph /  41.7 km/h 74 % 0.0 in /  0 mm 95.0 W/m2 CLR
12:57 3.9 °F /  -15.6 °C -0.3 °F /  -17.9 °C 1021.6 in /  34591.4 hPa North 37.0 mph /  59.5 km/h 37.0 mph /  59.5 km/h 74 % 0.0 in /  0 mm 77.0 W/m2 CLR
13:02 3.9 °F /  -15.6 °C -0.3 °F /  -17.9 °C 1021.2 in /  34577.8 hPa NNW 24.1 mph /  38.8 km/h 24.1 mph /  38.8 km/h 74 % 0.0 in /  0 mm 91.0 W/m2 CLR
13:07 3.9 °F /  -15.6 °C -0.2 °F /  -17.9 °C 1021.2 in /  34577.8 hPa North 27.8 mph /  44.7 km/h 27.8 mph /  44.7 km/h 75 % 0.0 in /  0 mm 109.0 W/m2 CLR
13:12 3.9 °F /  -15.6 °C -0.2 °F /  -17.9 °C 1021.2 in /  34577.8 hPa North 35.2 mph /  56.6 km/h 35.2 mph /  56.6 km/h 75 % 0.0 in /  0 mm 132.0 W/m2 CLR
13:17 4.4 °F /  -15.3 °C 0.4 °F /  -17.6 °C 1021.2 in /  34577.8 hPa NNW 24.1 mph /  38.8 km/h 24.1 mph /  38.8 km/h 75 % 0.0 in /  0 mm 123.0 W/m2 CLR
13:22 4.4 °F /  -15.3 °C 0.4 °F /  -17.6 °C 1021.2 in /  34577.8 hPa NNW 29.6 mph /  47.6 km/h 29.6 mph /  47.6 km/h 75 % 0.0 in /  0 mm 114.0 W/m2 CLR
13:27 4.4 °F /  -15.3 °C 0.4 °F /  -17.6 °C 1020.9 in /  34567.7 hPa NNW 29.6 mph /  47.6 km/h 29.6 mph /  47.6 km/h 75 % 0.0 in /  0 mm 88.0 W/m2 CLR
13:32 4.4 °F /  -15.3 °C 0.4 °F /  -17.6 °C 1020.9 in /  34567.7 hPa NNW 29.6 mph /  47.6 km/h 29.6 mph /  47.6 km/h 75 % 0.0 in /  0 mm 109.0 W/m2 CLR
13:37 4.4 °F /  -15.3 °C 0.6 °F /  -17.4 °C 1021.2 in /  34577.8 hPa NW 20.4 mph /  32.8 km/h 20.4 mph /  32.8 km/h 76 % 0.0 in /  0 mm 139.0 W/m2 CLR
13:42 4.4 °F /  -15.3 °C 0.6 °F /  -17.4 °C 1020.9 in /  34567.7 hPa NNW 17.7 mph /  28.5 km/h 17.7 mph /  28.5 km/h 76 % 0.0 in /  0 mm 144.0 W/m2 CLR
13:47 4.4 °F /  -15.3 °C 0.6 °F /  -17.4 °C 1020.9 in /  34567.7 hPa NNE 16.1 mph /  25.9 km/h 16.1 mph /  25.9 km/h 76 % 0.0 in /  0 mm 185.0 W/m2 CLR
13:52 4.4 °F /  -15.3 °C 0.4 °F /  -17.6 °C 1020.9 in /  34567.7 hPa NNW 24.1 mph /  38.8 km/h 24.1 mph /  38.8 km/h 75 % 0.0 in /  0 mm 213.0 W/m2 CLR
13:57 5.0 °F /  -15 °C 0.9 °F /  -17.3 °C 1020.9 in /  34567.7 hPa NNW 24.1 mph /  38.8 km/h 24.1 mph /  38.8 km/h 75 % 0.0 in /  0 mm 137.0 W/m2 CLR
14:02 5.0 °F /  -15 °C 0.7 °F /  -17.4 °C 1020.9 in /  34567.7 hPa NNE 24.1 mph /  38.8 km/h 24.1 mph /  38.8 km/h 74 % 0.0 in /  0 mm 109.0 W/m2 CLR
14:07 5.0 °F /  -15 °C 0.7 °F /  -17.4 °C 1020.9 in /  34567.7 hPa NNW 29.6 mph /  47.6 km/h 29.6 mph /  47.6 km/h 74 % 0.0 in /  0 mm 163.0 W/m2 CLR
14:12 5.0 °F /  -15 °C 0.4 °F /  -17.6 °C 1020.9 in /  34567.7 hPa North 24.1 mph /  38.8 km/h 24.1 mph /  38.8 km/h 72 % 0.0 in /  0 mm 153.0 W/m2 CLR
14:17 5.0 °F /  -15 °C 0.6 °F /  -17.4 °C 1020.9 in /  34567.7 hPa North 24.1 mph /  38.8 km/h 24.1 mph /  38.8 km/h 73 % 0.0 in /  0 mm 169.0 W/m2 CLR
14:23 5.0 °F /  -15 °C 0.4 °F /  -17.6 °C 1020.9 in /  34567.7 hPa NNW 19.3 mph /  31.1 km/h 19.3 mph /  31.1 km/h 72 % 0.0 in /  0 mm 176.0 W/m2 CLR
14:28 5.0 °F /  -15 °C 0.4 °F /  -17.6 °C 1020.5 in /  34554.1 hPa NNW 24.1 mph /  38.8 km/h 24.1 mph /  38.8 km/h 72 % 0.0 in /  0 mm 84.0 W/m2 CLR
14:33 5.0 °F /  -15 °C 0.4 °F /  -17.6 °C 1020.5 in /  34554.1 hPa North 31.5 mph /  50.7 km/h 31.5 mph /  50.7 km/h 72 % 0.0 in /  0 mm 118.0 W/m2 CLR
14:38 5.0 °F /  -15 °C 0.6 °F /  -17.4 °C 1020.5 in /  34554.1 hPa NNW 24.1 mph /  38.8 km/h 24.1 mph /  38.8 km/h 73 % 0.0 in /  0 mm 179.0 W/m2 CLR
14:43 5.0 °F /  -15 °C 0.4 °F /  -17.6 °C 1020.5 in /  34554.1 hPa NW 27.8 mph /  44.7 km/h 27.8 mph /  44.7 km/h 72 % 0.0 in /  0 mm 165.0 W/m2 CLR
14:48 5.0 °F /  -15 °C 0.6 °F /  -17.4 °C 1020.5 in /  34554.1 hPa North 18.5 mph /  29.8 km/h 18.5 mph /  29.8 km/h 73 % 0.0 in /  0 mm 178.0 W/m2 CLR
14:53 6.1 °F /  -14.4 °C 1.2 °F /  -17.1 °C 1020.2 in /  34544 hPa NNW 25.9 mph /  41.7 km/h 25.9 mph /  41.7 km/h 71 % 0.0 in /  0 mm 663.0 W/m2 CLR
14:58 6.7 °F /  -14.1 °C 1.6 °F /  -16.9 °C 1020.2 in /  34544 hPa NW 22.2 mph /  35.7 km/h 22.2 mph /  35.7 km/h 70 % 0.0 in /  0 mm 213.0 W/m2 CLR
15:03 6.7 °F /  -14.1 °C 1.4 °F /  -17 °C 1020.2 in /  34544 hPa NW 20.9 mph /  33.6 km/h 20.9 mph /  33.6 km/h 69 % 0.0 in /  0 mm 116.0 W/m2 CLR
15:08 6.1 °F /  -14.4 °C 1.1 °F /  -17.2 °C 1020.2 in /  34544 hPa NNW 18.5 mph /  29.8 km/h 18.5 mph /  29.8 km/h 70 % 0.0 in /  0 mm 160.0 W/m2 CLR
15:13 6.1 °F /  -14.4 °C 1.2 °F /  -17.1 °C 1020.2 in /  34544 hPa North 18.5 mph /  29.8 km/h 18.5 mph /  29.8 km/h 71 % 0.0 in /  0 mm 149.0 W/m2 CLR
15:18 6.1 °F /  -14.4 °C 1.2 °F /  -17.1 °C 1020.2 in /  34544 hPa NW 18.5 mph /  29.8 km/h 18.5 mph /  29.8 km/h 71 % 0.0 in /  0 mm 246.0 W/m2 CLR
15:23 6.7 °F /  -14.1 °C 1.6 °F /  -16.9 °C 1020.2 in /  34544 hPa North 14.8 mph /  23.8 km/h 14.8 mph /  23.8 km/h 70 % 0.0 in /  0 mm 246.0 W/m2 CLR
15:28 6.7 °F /  -14.1 °C 1.6 °F /  -16.9 °C 1020.2 in /  34544 hPa North 18.5 mph /  29.8 km/h 18.5 mph /  29.8 km/h 70 % 0.0 in /  0 mm 202.0 W/m2 CLR
15:33 6.7 °F /  -14.1 °C 1.4 °F /  -17 °C 1020.2 in /  34544 hPa Calm     69 % 0.0 in /  0 mm 162.0 W/m2 CLR
15:38 6.7 °F /  -14.1 °C 0.8 °F /  -17.3 °C 1020.2 in /  34544 hPa North 20.4 mph /  32.8 km/h 20.4 mph /  32.8 km/h 66 % 0.0 in /  0 mm 162.0 W/m2 CLR
15:43 6.7 °F /  -14.1 °C 0.6 °F /  -17.4 °C 1020.2 in /  34544 hPa NW 20.4 mph /  32.8 km/h 20.4 mph /  32.8 km/h 65 % 0.0 in /  0 mm 114.0 W/m2 CLR
15:48 6.7 °F /  -14.1 °C 0.6 °F /  -17.4 °C 1020.2 in /  34544 hPa North 14.8 mph /  23.8 km/h 14.8 mph /  23.8 km/h 65 % 0.0 in /  0 mm 100.0 W/m2 CLR
15:53 6.1 °F /  -14.4 °C 0.2 °F /  -17.7 °C 1020.2 in /  34544 hPa NNW 14.8 mph /  23.8 km/h 14.8 mph /  23.8 km/h 66 % 0.0 in /  0 mm 49.0 W/m2 FEW
15:58 6.1 °F /  -14.4 °C 0.0 °F /  -17.8 °C 1019.9 in /  34533.8 hPa NNW 16.7 mph /  26.9 km/h 16.7 mph /  26.9 km/h 65 % 0.0 in /  0 mm 60.0 W/m2 SCT
16:03 6.1 °F /  -14.4 °C 0.0 °F /  -17.8 °C 1020.2 in /  34544 hPa NW 9.3 mph /  15 km/h 9.3 mph /  15 km/h 65 % 0.0 in /  0 mm 67.0 W/m2 SCT
16:08 6.1 °F /  -14.4 °C 0.0 °F /  -17.8 °C 1020.2 in /  34544 hPa NNW 18.5 mph /  29.8 km/h 18.5 mph /  29.8 km/h 65 % 0.0 in /  0 mm 39.0 W/m2 SCT
16:13 6.1 °F /  -14.4 °C -0.4 °F /  -18 °C 1020.2 in /  34544 hPa NNW 31.5 mph /  50.7 km/h 31.5 mph /  50.7 km/h 63 % 0.0 in /  0 mm 46.0 W/m2 BKN
16:18 6.1 °F /  -14.4 °C -0.4 °F /  -18 °C 1020.2 in /  34544 hPa North 27.8 mph /  44.7 km/h 27.8 mph /  44.7 km/h 63 % 0.0 in /  0 mm 69.0 W/m2 SCT
16:23 6.1 °F /  -14.4 °C -0.4 °F /  -18 °C 1020.2 in /  34544 hPa North 27.4 mph /  44.1 km/h 27.4 mph /  44.1 km/h 63 % 0.0 in /  0 mm 56.0 W/m2 SCT
16:28 6.1 °F /  -14.4 °C -0.4 °F /  -18 °C 1020.2 in /  34544 hPa NNW 29.6 mph /  47.6 km/h 29.6 mph /  47.6 km/h 63 % 0.0 in /  0 mm 54.0 W/m2 SCT
16:33 6.1 °F /  -14.4 °C -0.4 °F /  -18 °C 1020.2 in /  34544 hPa NNW 24.1 mph /  38.8 km/h 24.1 mph /  38.8 km/h 63 % 0.0 in /  0 mm 62.0 W/m2 SCT
16:38 6.1 °F /  -14.4 °C -0.4 °F /  -18 °C 1020.2 in /  34544 hPa North 25.9 mph /  41.7 km/h 25.9 mph /  41.7 km/h 63 % 0.0 in /  0 mm 46.0 W/m2 SCT
16:43 6.1 °F /  -14.4 °C -0.4 °F /  -18 °C 1020.2 in /  34544 hPa North 31.5 mph /  50.7 km/h 31.5 mph /  50.7 km/h 63 % 0.0 in /  0 mm 30.0 W/m2 BKN
16:48 5.6 °F /  -14.7 °C -0.9 °F /  -18.3 °C 1020.2 in /  34544 hPa NNW 25.9 mph /  41.7 km/h 25.9 mph /  41.7 km/h 63 % 0.0 in /  0 mm 40.0 W/m2 BKN
16:53 5.6 °F /  -14.7 °C -0.9 °F /  -18.3 °C 1020.2 in /  34544 hPa NNW 27.8 mph /  44.7 km/h 27.8 mph /  44.7 km/h 63 % 0.0 in /  0 mm 21.0 W/m2 BKN
16:58 5.6 °F /  -14.7 °C -0.7 °F /  -18.2 °C 1020.2 in /  34544 hPa North 25.9 mph /  41.7 km/h 25.9 mph /  41.7 km/h 64 % 0.0 in /  0 mm 25.0 W/m2 BKN
17:03 5.6 °F /  -14.7 °C -0.7 °F /  -18.2 °C 1020.2 in /  34544 hPa NNW 24.1 mph /  38.8 km/h 24.1 mph /  38.8 km/h 64 % 0.0 in /  0 mm 21.0 W/m2 BKN
17:08 5.6 °F /  -14.7 °C -0.9 °F /  -18.3 °C 1020.2 in /  34544 hPa North 29.6 mph /  47.6 km/h 29.6 mph /  47.6 km/h 63 % 0.0 in /  0 mm 19.0 W/m2 BKN
17:13 5.6 °F /  -14.7 °C -0.9 °F /  -18.3 °C 1020.2 in /  34544 hPa NNW 24.1 mph /  38.8 km/h 24.1 mph /  38.8 km/h 63 % 0.0 in /  0 mm 23.0 W/m2 BKN
17:18 5.6 °F /  -14.7 °C -0.7 °F /  -18.2 °C 1020.5 in /  34554.1 hPa NNW 32.2 mph /  51.8 km/h 32.2 mph /  51.8 km/h 64 % 0.0 in /  0 mm 16.0 W/m2 BKN
17:23 5.6 °F /  -14.7 °C -0.9 °F /  -18.3 °C 1020.5 in /  34554.1 hPa NNW 27.8 mph /  44.7 km/h 27.8 mph /  44.7 km/h 63 % 0.0 in /  0 mm 18.0 W/m2 BKN
17:28 5.6 °F /  -14.7 °C -0.7 °F /  -18.2 °C 1020.5 in /  34554.1 hPa NW 20.4 mph /  32.8 km/h 20.4 mph /  32.8 km/h 64 % 0.0 in /  0 mm 21.0 W/m2 BKN
17:33 5.6 °F /  -14.7 °C -0.7 °F /  -18.2 °C 1020.5 in /  34554.1 hPa North 25.7 mph /  41.4 km/h 25.7 mph /  41.4 km/h 64 % 0.0 in /  0 mm 23.0 W/m2 BKN
17:38 5.6 °F /  -14.7 °C -0.7 °F /  -18.2 °C 1020.5 in /  34554.1 hPa North 31.5 mph /  50.7 km/h 31.5 mph /  50.7 km/h 64 % 0.0 in /  0 mm 18.0 W/m2 BKN
17:43 5.6 °F /  -14.7 °C -0.7 °F /  -18.2 °C 1020.2 in /  34544 hPa NNW 24.1 mph /  38.8 km/h 24.1 mph /  38.8 km/h 64 % 0.0 in /  0 mm 12.0 W/m2 BKN
17:48 5.0 °F /  -15 °C -1.3 °F /  -18.5 °C 1020.5 in /  34554.1 hPa NNW 24.1 mph /  38.8 km/h 24.1 mph /  38.8 km/h 64 % 0.0 in /  0 mm 11.0 W/m2 BKN
17:53 5.0 °F /  -15 °C -1.1 °F /  -18.4 °C 1020.5 in /  34554.1 hPa NNW 27.8 mph /  44.7 km/h 27.8 mph /  44.7 km/h 65 % 0.0 in /  0 mm 9.0 W/m2 BKN
17:58 5.0 °F /  -15 °C -1.1 °F /  -18.4 °C 1020.5 in /  34554.1 hPa North 20.9 mph /  33.6 km/h 20.9 mph /  33.6 km/h 65 % 0.0 in /  0 mm 5.0 W/m2 OVC
18:03 5.0 °F /  -15 °C -0.8 °F /  -18.2 °C 1020.9 in /  34567.7 hPa ENE 17.7 mph /  28.5 km/h 17.7 mph /  28.5 km/h 66 % 0.0 in /  0 mm 0.0 W/m2 OVC
18:08 4.4 °F /  -15.3 °C -0.6 °F /  -18.1 °C 1020.9 in /  34567.7 hPa East 18.5 mph /  29.8 km/h 18.5 mph /  29.8 km/h 70 % 0.0 in /  0 mm 0.0 W/m2 OVC
18:13 3.9 °F /  -15.6 °C -0.3 °F /  -17.9 °C 1020.9 in /  34567.7 hPa SE 14.8 mph /  23.8 km/h 14.8 mph /  23.8 km/h 74 % 0.0 in /  0 mm 0.0 W/m2 OVC
18:18 3.3 °F /  -15.9 °C -0.3 °F /  -17.9 °C 1021.2 in /  34577.8 hPa ESE 6.4 mph /  10.3 km/h 6.4 mph /  10.3 km/h 77 % 0.0 in /  0 mm 0.0 W/m2 OVC
18:23 3.3 °F /  -15.9 °C 0.1 °F /  -17.7 °C 1021.2 in /  34577.8 hPa ESE 18.5 mph /  29.8 km/h 18.5 mph /  29.8 km/h 79 % 0.0 in /  0 mm 0.0 W/m2 OVC
18:28 3.3 °F /  -15.9 °C 0.4 °F /  -17.6 °C 1021.6 in /  34591.4 hPa ESE 5.6 mph /  9 km/h 5.6 mph /  9 km/h 81 % 0.0 in /  0 mm 0.0 W/m2 OVC
18:33 2.8 °F /  -16.2 °C 0.0 °F /  -17.8 °C 1021.6 in /  34591.4 hPa SSE 11.3 mph /  18.2 km/h 11.3 mph /  18.2 km/h 82 % 0.0 in /  0 mm 0.0 W/m2 OVC
18:38 2.8 °F /  -16.2 °C 0.2 °F /  -17.7 °C 1021.6 in /  34591.4 hPa South 11.1 mph /  17.9 km/h 11.1 mph /  17.9 km/h 83 % 0.0 in /  0 mm 0.0 W/m2 CLR
18:43 2.8 °F /  -16.2 °C 0.3 °F /  -17.6 °C 1021.6 in /  34591.4 hPa SSE 7.4 mph /  11.9 km/h 7.4 mph /  11.9 km/h 84 % 0.3 in /  7.62 mm 0.0 W/m2 RA
18:48 2.2 °F /  -16.6 °C -0.1 °F /  -17.8 °C 1021.6 in /  34591.4 hPa SE 3.7 mph /  6 km/h 3.7 mph /  6 km/h 85 % 0.3 in /  7.62 mm 0.0 W/m2 CLR
18:54 2.2 °F /  -16.6 °C 0.1 °F /  -17.7 °C 1021.6 in /  34591.4 hPa SSE 6.4 mph /  10.3 km/h 6.4 mph /  10.3 km/h 86 % 0.3 in /  7.62 mm 0.0 W/m2 CLR
18:59 2.2 °F /  -16.6 °C 0.3 °F /  -17.6 °C 1021.6 in /  34591.4 hPa SE 8.0 mph /  12.9 km/h 8.0 mph /  12.9 km/h 87 % 0.5 in /  12.7 mm 0.0 W/m2 RA
19:04 2.2 °F /  -16.6 °C 0.3 °F /  -17.6 °C 1021.9 in /  34601.5 hPa SSE 7.4 mph /  11.9 km/h 7.4 mph /  11.9 km/h 87 % 0.5 in /  12.7 mm 0.0 W/m2 CLR
19:09 1.7 °F /  -16.8 °C -0.1 °F /  -17.8 °C 1021.9 in /  34601.5 hPa South 13.0 mph /  20.9 km/h 13.0 mph /  20.9 km/h 88 % 0.5 in /  12.7 mm 0.0 W/m2 CLR
19:14 1.7 °F /  -16.8 °C -0.1 °F /  -17.8 °C 1021.9 in /  34601.5 hPa SSE 9.3 mph /  15 km/h 9.3 mph /  15 km/h 88 % 0.5 in /  12.7 mm 0.0 W/m2 CLR
19:19 1.7 °F /  -16.8 °C 0.1 °F /  -17.7 °C 1021.9 in /  34601.5 hPa South 11.3 mph /  18.2 km/h 11.3 mph /  18.2 km/h 89 % 0.5 in /  12.7 mm 0.0 W/m2 CLR
19:24 1.7 °F /  -16.8 °C 0.1 °F /  -17.7 °C 1021.9 in /  34601.5 hPa South 5.6 mph /  9 km/h 5.6 mph /  9 km/h 89 % 0.5 in /  12.7 mm 0.0 W/m2 CLR
19:29 1.7 °F /  -16.8 °C 0.1 °F /  -17.7 °C 1021.9 in /  34601.5 hPa SSE 3.7 mph /  6 km/h 3.7 mph /  6 km/h 89 % 0.5 in /  12.7 mm 0.0 W/m2 CLR
19:34 1.7 °F /  -16.8 °C 0.2 °F /  -17.7 °C 1021.9 in /  34601.5 hPa SSE 7.4 mph /  11.9 km/h 7.4 mph /  11.9 km/h 90 % 0.5 in /  12.7 mm 0.0 W/m2 CLR
19:39 1.7 °F /  -16.8 °C 0.2 °F /  -17.7 °C 1022.2 in /  34611.7 hPa SSE 5.6 mph /  9 km/h 5.6 mph /  9 km/h 90 % 0.3 in /  7.62 mm 0.0 W/m2 CLR
19:44 1.7 °F /  -16.8 °C 0.2 °F /  -17.7 °C 1022.2 in /  34611.7 hPa SSW 11.1 mph /  17.9 km/h 11.1 mph /  17.9 km/h 90 % 0.3 in /  7.62 mm 0.0 W/m2 CLR
19:49 1.7 °F /  -16.8 °C 0.2 °F /  -17.7 °C 1022.2 in /  34611.7 hPa South 5.6 mph /  9 km/h 5.6 mph /  9 km/h 90 % 0.3 in /  7.62 mm 0.0 W/m2 CLR
19:54 1.7 °F /  -16.8 °C 0.2 °F /  -17.7 °C 1022.2 in /  34611.7 hPa SSE 12.9 mph /  20.8 km/h 12.9 mph /  20.8 km/h 90 % 0.3 in /  7.62 mm 0.0 W/m2 CLR
19:59 1.7 °F /  -16.8 °C 0.2 °F /  -17.7 °C 1022.2 in /  34611.7 hPa SSW 7.4 mph /  11.9 km/h 7.4 mph /  11.9 km/h 90 % 0.0 in /  0 mm 0.0 W/m2 CLR
20:04 1.7 °F /  -16.8 °C 0.2 °F /  -17.7 °C 1022.2 in /  34611.7 hPa SW 5.6 mph /  9 km/h 5.6 mph /  9 km/h 90 % 0.0 in /  0 mm 0.0 W/m2 CLR
20:09 1.7 °F /  -16.8 °C 0.2 °F /  -17.7 °C 1022.2 in /  34611.7 hPa SW 9.3 mph /  15 km/h 9.3 mph /  15 km/h 90 % 0.0 in /  0 mm 0.0 W/m2 CLR
20:14 1.7 °F /  -16.8 °C 0.2 °F /  -17.7 °C 1022.2 in /  34611.7 hPa Calm     90 % 0.0 in /  0 mm 0.0 W/m2 CLR
20:19 1.7 °F /  -16.8 °C 0.2 °F /  -17.7 °C 1022.6 in /  34625.2 hPa Calm     90 % 0.0 in /  0 mm 0.0 W/m2 CLR
20:24 1.7 °F /  -16.8 °C 0.2 °F /  -17.7 °C 1022.6 in /  34625.2 hPa NW 6.4 mph /  10.3 km/h 6.4 mph /  10.3 km/h 90 % 0.0 in /  0 mm 0.0 W/m2 CLR
20:29 1.7 °F /  -16.8 °C 0.2 °F /  -17.7 °C 1022.6 in /  34625.2 hPa NW 13.0 mph /  20.9 km/h 13.0 mph /  20.9 km/h 90 % 0.0 in /  0 mm 0.0 W/m2 CLR
20:34 1.7 °F /  -16.8 °C 0.2 °F /  -17.7 °C 1022.2 in /  34611.7 hPa NW 13.0 mph /  20.9 km/h 13.0 mph /  20.9 km/h 90 % 0.0 in /  0 mm 0.0 W/m2 CLR
20:39 1.7 °F /  -16.8 °C 0.1 °F /  -17.7 °C 1022.2 in /  34611.7 hPa NW 14.8 mph /  23.8 km/h 14.8 mph /  23.8 km/h 89 % 0.0 in /  0 mm 0.0 W/m2 CLR
20:44 1.7 °F /  -16.8 °C -0.1 °F /  -17.8 °C 1021.9 in /  34601.5 hPa WNW 18.5 mph /  29.8 km/h 18.5 mph /  29.8 km/h 88 % 0.0 in /  0 mm 0.0 W/m2 CLR
20:49 1.7 °F /  -16.8 °C 0.1 °F /  -17.7 °C 1021.9 in /  34601.5 hPa WNW 9.3 mph /  15 km/h 9.3 mph /  15 km/h 89 % 0.0 in /  0 mm 0.0 W/m2 CLR
20:54 1.7 °F /  -16.8 °C 0.1 °F /  -17.7 °C 1021.9 in /  34601.5 hPa WNW 13.0 mph /  20.9 km/h 13.0 mph /  20.9 km/h 89 % 0.0 in /  0 mm 0.0 W/m2 CLR
20:59 1.7 °F /  -16.8 °C 0.1 °F /  -17.7 °C 1021.9 in /  34601.5 hPa WNW 8.0 mph /  12.9 km/h 8.0 mph /  12.9 km/h 89 % 0.0 in /  0 mm 0.0 W/m2 CLR
21:04 1.1 °F /  -17.2 °C -0.5 °F /  -18.1 °C 1022.2 in /  34611.7 hPa WNW 14.8 mph /  23.8 km/h 14.8 mph /  23.8 km/h 89 % 0.0 in /  0 mm 0.0 W/m2 CLR
21:09 1.1 °F /  -17.2 °C -0.5 °F /  -18.1 °C 1022.2 in /  34611.7 hPa WNW 13.0 mph /  20.9 km/h 13.0 mph /  20.9 km/h 89 % 0.0 in /  0 mm 0.0 W/m2 CLR
21:14 1.1 °F /  -17.2 °C -0.5 °F /  -18.1 °C 1022.2 in /  34611.7 hPa West 16.7 mph /  26.9 km/h 16.7 mph /  26.9 km/h 89 % 0.0 in /  0 mm 0.0 W/m2 CLR
21:19 1.1 °F /  -17.2 °C -0.5 °F /  -18.1 °C 1022.2 in /  34611.7 hPa West 9.7 mph /  15.6 km/h 9.7 mph /  15.6 km/h 89 % 0.0 in /  0 mm 0.0 W/m2 CLR
21:24 1.1 °F /  -17.2 °C -0.5 °F /  -18.1 °C 1022.2 in /  34611.7 hPa West 14.5 mph /  23.3 km/h 14.5 mph /  23.3 km/h 89 % 0.0 in /  0 mm 0.0 W/m2 CLR
21:29 1.1 °F /  -17.2 °C -0.5 °F /  -18.1 °C 1022.6 in /  34625.2 hPa West 11.1 mph /  17.9 km/h 11.1 mph /  17.9 km/h 89 % 0.0 in /  0 mm 0.0 W/m2 CLR
21:34 0.6 °F /  -17.4 °C -1.1 °F /  -18.4 °C 1022.6 in /  34625.2 hPa West 7.4 mph /  11.9 km/h 7.4 mph /  11.9 km/h 89 % 0.0 in /  0 mm 0.0 W/m2 CLR
21:39 0.6 °F /  -17.4 °C -0.9 °F /  -18.3 °C 1022.6 in /  34625.2 hPa West 5.6 mph /  9 km/h 5.6 mph /  9 km/h 90 % 0.0 in /  0 mm 0.0 W/m2 CLR
21:44 0.6 °F /  -17.4 °C -0.9 °F /  -18.3 °C 1022.6 in /  34625.2 hPa West 3.7 mph /  6 km/h 3.7 mph /  6 km/h 90 % 0.0 in /  0 mm 0.0 W/m2 CLR
21:49 0.0 °F /  -17.8 °C -1.4 °F /  -18.6 °C 1022.6 in /  34625.2 hPa WSW 5.6 mph /  9 km/h 5.6 mph /  9 km/h 90 % 0.0 in /  0 mm 0.0 W/m2 CLR
21:54 0.6 °F /  -17.4 °C -0.9 °F /  -18.3 °C 1022.9 in /  34635.4 hPa WSW 5.6 mph /  9 km/h 5.6 mph /  9 km/h 90 % 0.0 in /  0 mm 0.0 W/m2 CLR
21:59 0.0 °F /  -17.8 °C -1.4 °F /  -18.6 °C 1022.9 in /  34635.4 hPa WSW 5.6 mph /  9 km/h 5.6 mph /  9 km/h 90 % 0.0 in /  0 mm 0.0 W/m2 CLR
22:04 0.0 °F /  -17.8 °C -1.4 °F /  -18.6 °C 1022.6 in /  34625.2 hPa WSW 5.6 mph /  9 km/h 5.6 mph /  9 km/h 90 % 0.0 in /  0 mm 0.0 W/m2 CLR
22:09 0.0 °F /  -17.8 °C -1.4 °F /  -18.6 °C 1022.6 in /  34625.2 hPa WSW 5.6 mph /  9 km/h 5.6 mph /  9 km/h 90 % 0.0 in /  0 mm 0.0 W/m2 CLR
22:14 0.0 °F /  -17.8 °C -1.4 °F /  -18.6 °C 1022.6 in /  34625.2 hPa WSW 6.4 mph /  10.3 km/h 6.4 mph /  10.3 km/h 90 % 0.0 in /  0 mm 0.0 W/m2 CLR
22:19 0.0 °F /  -17.8 °C -1.4 °F /  -18.6 °C 1022.6 in /  34625.2 hPa WSW 6.4 mph /  10.3 km/h 6.4 mph /  10.3 km/h 90 % 0.0 in /  0 mm 0.0 W/m2 CLR
22:24 0.0 °F /  -17.8 °C -1.4 °F /  -18.6 °C 1022.6 in /  34625.2 hPa WSW 6.4 mph /  10.3 km/h 6.4 mph /  10.3 km/h 90 % 0.0 in /  0 mm 0.0 W/m2 CLR
22:29 0.0 °F /  -17.8 °C -1.3 °F /  -18.5 °C 1022.6 in /  34625.2 hPa WSW 3.7 mph /  6 km/h 3.7 mph /  6 km/h 91 % 0.0 in /  0 mm 0.0 W/m2 CLR
22:34 0.0 °F /  -17.8 °C -1.3 °F /  -18.5 °C 1022.6 in /  34625.2 hPa SW 5.6 mph /  9 km/h 5.6 mph /  9 km/h 91 % 0.0 in /  0 mm 0.0 W/m2 CLR
22:39 -0.6 °F /  -18.1 °C -1.8 °F /  -18.8 °C 1022.6 in /  34625.2 hPa SW 6.4 mph /  10.3 km/h 6.4 mph /  10.3 km/h 91 % 0.0 in /  0 mm 0.0 W/m2 CLR
22:44 -0.6 °F /  -18.1 °C -1.8 °F /  -18.8 °C 1022.6 in /  34625.2 hPa SW 6.4 mph /  10.3 km/h 6.4 mph /  10.3 km/h 91 % 0.0 in /  0 mm 0.0 W/m2 CLR
22:49 -0.6 °F /  -18.1 °C -1.8 °F /  -18.8 °C 1022.6 in /  34625.2 hPa West 5.6 mph /  9 km/h 5.6 mph /  9 km/h 91 % 0.0 in /  0 mm 0.0 W/m2 CLR
22:54 -0.6 °F /  -18.1 °C -1.8 °F /  -18.8 °C 1022.6 in /  34625.2 hPa Calm     91 % 0.0 in /  0 mm 0.0 W/m2 CLR
22:59 -0.6 °F /  -18.1 °C -1.8 °F /  -18.8 °C 1022.6 in /  34625.2 hPa Calm     91 % 0.0 in /  0 mm 0.0 W/m2 CLR
23:04 -0.6 °F /  -18.1 °C -1.8 °F /  -18.8 °C 1022.9 in /  34635.4 hPa South 5.6 mph /  9 km/h 5.6 mph /  9 km/h 91 % 0.0 in /  0 mm 0.0 W/m2 CLR
23:09 -0.6 °F /  -18.1 °C -1.8 °F /  -18.8 °C 1022.9 in /  34635.4 hPa SE 5.6 mph /  9 km/h 5.6 mph /  9 km/h 91 % 0.0 in /  0 mm 0.0 W/m2 CLR
23:14 -0.6 °F /  -18.1 °C -1.8 °F /  -18.8 °C 1022.9 in /  34635.4 hPa SE 3.7 mph /  6 km/h 3.7 mph /  6 km/h 91 % 0.0 in /  0 mm 0.0 W/m2 CLR
23:19 -1.1 °F /  -18.4 °C -2.4 °F /  -19.1 °C 1022.9 in /  34635.4 hPa Calm     91 % 0.0 in /  0 mm 0.0 W/m2 CLR
23:24 -1.1 °F /  -18.4 °C -2.4 °F /  -19.1 °C 1022.9 in /  34635.4 hPa Calm     91 % 0.0 in /  0 mm 0.0 W/m2 CLR
23:29 -1.1 °F /  -18.4 °C -2.4 °F /  -19.1 °C 1022.9 in /  34635.4 hPa West 1.6 mph /  2.6 km/h   91 % 0.0 in /  0 mm 0.0 W/m2 CLR
23:35 -1.7 °F /  -18.7 °C -2.9 °F /  -19.4 °C 1022.9 in /  34635.4 hPa West 7.4 mph /  11.9 km/h 7.4 mph /  11.9 km/h 91 % 0.0 in /  0 mm 0.0 W/m2 CLR
23:40 -1.7 °F /  -18.7 °C -3.1 °F /  -19.5 °C 1022.9 in /  34635.4 hPa West 3.7 mph /  6 km/h 3.7 mph /  6 km/h 90 % 0.0 in /  0 mm 0.0 W/m2 CLR
23:45 -2.2 °F /  -19 °C -3.7 °F /  -19.8 °C 1022.9 in /  34635.4 hPa West 7.4 mph /  11.9 km/h 7.4 mph /  11.9 km/h 90 % 0.0 in /  0 mm 0.0 W/m2 CLR
23:50 -2.2 °F /  -19 °C -3.7 °F /  -19.8 °C 1022.9 in /  34635.4 hPa West 5.6 mph /  9 km/h 5.6 mph /  9 km/h 90 % 0.0 in /  0 mm 0.0 W/m2 CLR
23:55 -2.2 °F /  -19 °C -3.7 °F /  -19.8 °C 1022.9 in /  34635.4 hPa West 8.0 mph /  12.9 km/h 8.0 mph /  12.9 km/h 90 % 0.0 in /  0 mm 0.0 W/m2 CLR
Lo Temps de Massalio
Compliments of Weather Underground - 1.25 mb